Detalii statie SADELLI PRODCOM [00001D03]

Toti senzorii

Date Temperatura solului [C]Precipitatii [mm]Voltaj baterie [mV]Leaf Wetness [Min]HC Air temperature [C]HC Relative humidity [%]Punctul de roua [C]
medieminmaxsumaultimatimpmedieminmaxmediemediemin
2018-08-12 11:00:00 25.4 24.8 26.1 0 7186 28.7 27.36 29.5 0 0 0
2018-08-12 12:00:00 27.1 26.3 28.1 0 7186 29.81 29.14 30.5 0 0 0
2018-08-12 13:00:00 28.9 28.2 29.5 0 7186 31.02 30.13 31.62 0 0 0
2018-08-12 14:00:00 30.3 29.7 31.1 0 7186 31.58 30.68 32.08 0 0 0
2018-08-12 15:00:00 31.1 30.9 31.4 0 7196 31.91 30.45 33.39 0 0 0
2018-08-12 16:00:00 31.3 31.1 31.4 0 7196 32.17 31.21 33.06 0 0 0
2018-08-12 17:00:00 31.2 30.9 31.4 0 7186 32.2 31.62 32.67 0 0 0
2018-08-12 18:00:00 30.6 30.2 31 0 7040 31.97 30.58 33.41 0 0 0
2018-08-12 19:00:00 29.8 29.5 30.2 0 7176 29.96 29.27 30.77 0 0 0
2018-08-12 20:00:00 28.8 28.4 29.3 0 6776 26.69 25.33 28.93 0 0 0
2018-08-12 21:00:00 28.1 27.8 28.5 0 6766 23.75 21.86 25.68 0 0 0
2018-08-12 22:00:00 27.2 27 27.7 0 6748 21.08 20.6 21.64 0 0 0
2018-08-12 23:00:00 26.6 26.4 26.8 0 6748 20.34 19.88 20.81 0 0 0
2018-08-13 00:00:00 26.1 25.9 26.4 0 6748 20.74 20.57 20.96 0 0 0
2018-08-13 01:00:00 25.5 25.4 25.8 0 6738 20.72 20.6 20.89 0 0 0
2018-08-13 02:00:00 25.3 25 25.5 0 6728 20.78 20.69 20.93 0 0 0
2018-08-13 03:00:00 24.9 24.8 25.1 0 6718 20.61 20.43 20.91 0 0 0
2018-08-13 04:00:00 24.6 24.5 24.9 0 6708 20.31 20.17 20.4 0 0 0
2018-08-13 05:00:00 24.3 24 24.6 0 6708 20.02 19.87 20.16 0 0 0
2018-08-13 06:00:00 24.1 24 24.3 0 6708 20.04 19.9 20.39 0 0 0
2018-08-13 07:00:00 23.9 23.8 24.1 0 6776 21.22 20.43 22.14 0 0 0
2018-08-13 08:00:00 23.9 23.8 24.1 0 6894 23.46 22.31 24.76 0 0 0
2018-08-13 09:00:00 24.2 24 24.5 0 7000 26.42 25.07 28.07 0 0 0
2018-08-13 10:00:00 24.9 24.5 25.5 0 7196 28.73 27.88 29.66 0 0 0
2018-08-13 11:00:00 26.4 25.7 27.2 0 7186 30.6 29.88 31.78 0 0 0
2018-08-13 12:00:00 28.4 27.7 29.2 0 7186 31.86 31.09 32.99 0 0 0
2018-08-13 13:00:00 29.8 29.4 30.2 0 7186 31.65 30.49 32.46 0 0 0
2018-08-13 14:00:00 30.8 30.2 31.5 0 7166 33.37 32.75 33.85 0 0 0
2018-08-13 15:00:00 31.8 31.5 32.1 0 7138 33.35 32.41 34.25 0 0 0
2018-08-13 16:00:00 32.2 32.2 32.4 0 7186 33.38 31.87 34.65 0 0 0
2018-08-13 17:00:00 32 31.8 32.2 0 7176 32.8 32.1 33.43 0 0 0
2018-08-13 18:00:00 31.2 30.8 31.8 0 7166 31.85 31.27 32.5 0 0 0
2018-08-13 19:00:00 30.4 30.1 30.7 0 7158 30.8 29.57 31.68 0 0 0
2018-08-13 20:00:00 29.5 29.2 29.9 0 6776 27.63 25.98 29.24 0 0 0
2018-08-13 21:00:00 28.8 28.4 29.1 0 6756 25.07 24.28 25.76 0 0 0
2018-08-13 22:00:00 28 27.5 28.5 0 6756 24.12 23.87 24.33 0 0 0
2018-08-13 23:00:00 27.3 27 27.7 0 6748 23.59 23.38 23.8 0 0 0
2018-08-14 00:00:00 26.7 26.5 27.1 0 6748 22.86 22.24 23.29 0 0 0
2018-08-14 01:00:00 26.3 26.2 26.6 0 6738 22.31 22.09 22.43 0 0 0
2018-08-14 02:00:00 25.9 25.7 26.2 0 6738 21.89 21.78 21.99 0 0 0
2018-08-14 03:00:00 25.5 25.3 25.8 0 6718 21.95 21.76 22.09 0 0 0
2018-08-14 04:00:00 25.1 24.9 25.3 0 6718 21.63 21.5 21.89 0 0 0
2018-08-14 05:00:00 24.8 24.6 25.1 0 6708 21.29 21.18 21.58 0 0 0
2018-08-14 06:00:00 24.5 24.3 24.7 0 6708 21 20.88 21.15 0 0 0
2018-08-14 07:00:00 24.3 24.1 24.5 0 6786 21.66 21.1 22.54 0 0 0
2018-08-14 08:00:00 24.3 24.2 24.5 0 6874 24.07 22.71 25.54 0 0 0
2018-08-14 09:00:00 24.6 24.4 24.9 0 6982 27.36 25.67 28.83 0 0 0
2018-08-14 10:00:00 25.5 24.9 26 0 7196 30.07 28.85 31.39 0 0 0